Terminal Aerodrome Forecast
Issued by NWS

Home | Current Version | Previous Version | Text Only | Print | Product List | Glossary On
Versions: 1 2 3 4 5 6 7 8 9 10 11 12 13 14 15 16 17 18 19 20 21 22 23 24 25 26 27 28 29 30 31 32 33
000
FTUS46 KOTX 210520
TAFPUW
TAF
KPUW 210520Z 2106/2206 26015G22KT P6SM SCT070 BKN100 OVC120
     FM210700 25015G22KT P6SM -RA SCT040 OVC060
     FM210900 25015G22KT 6SM +RA BKN020 OVC025
     FM211100 25015KT 5SM -RA BR SCT012 OVC020
     FM211600 24012KT 6SM BR OVC025
     FM220500 12005KT P6SM SCT120 SCT200=

USA.gov is the U.S. government's official web portal to all federal, state and local government web resources and services.